createdAt,value
2023-05-02T00:00:33.943Z,16.46
2023-05-02T00:03:00.468Z,17.77
2023-05-02T00:05:27.064Z,15.24
2023-05-02T00:07:53.475Z,18.01
2023-05-02T00:10:19.962Z,17.75
2023-05-02T00:12:46.418Z,16.45
2023-05-02T00:15:12.874Z,16.84
2023-05-02T00:17:39.330Z,15.59
2023-05-02T00:20:05.897Z,16.54
2023-05-02T00:22:32.503Z,17.76
2023-05-02T00:24:59.011Z,16.35
2023-05-02T00:27:25.471Z,17.27
2023-05-02T00:29:51.942Z,15.60
2023-05-02T00:32:18.428Z,16.16
2023-05-02T00:34:44.923Z,15.73
2023-05-02T00:37:11.480Z,15.73
2023-05-02T00:39:38.003Z,17.31
2023-05-02T00:42:04.479Z,15.39
2023-05-02T00:44:30.976Z,16.43
2023-05-02T00:46:57.573Z,17.51
2023-05-02T00:49:24.156Z,16.06
2023-05-02T00:51:50.717Z,17.38
2023-05-02T00:54:17.299Z,16.07
2023-05-02T00:56:43.832Z,14.73
2023-05-02T00:59:10.427Z,16.18
2023-05-02T01:01:37.103Z,16.71
2023-05-02T01:04:03.905Z,16.14
2023-05-02T01:06:30.562Z,16.41
2023-05-02T01:08:57.129Z,16.36
2023-05-02T01:11:23.610Z,16.69
2023-05-02T01:13:50.141Z,16.46
2023-05-02T01:16:16.673Z,16.60
2023-05-02T01:18:43.267Z,15.60
2023-05-02T01:21:09.842Z,15.85
2023-05-02T01:23:36.355Z,15.57
2023-05-02T01:26:02.824Z,16.68
2023-05-02T01:28:29.303Z,16.19
2023-05-02T01:30:55.777Z,15.09
2023-05-02T01:33:22.261Z,16.04
2023-05-02T01:35:48.800Z,16.65
2023-05-02T01:38:15.226Z,15.51
2023-05-02T01:40:41.763Z,16.77
2023-05-02T01:43:08.333Z,16.51
2023-05-02T01:45:34.864Z,15.97
2023-05-02T01:48:01.435Z,17.77
2023-05-02T01:50:28.036Z,16.19
2023-05-02T01:52:54.595Z,16.28
2023-05-02T01:55:21.135Z,15.63
2023-05-02T01:57:47.622Z,15.84
2023-05-02T02:00:14.032Z,17.64
2023-05-02T02:02:40.595Z,14.95
2023-05-02T02:05:07.173Z,14.52
2023-05-02T02:07:33.662Z,15.04
2023-05-02T02:10:00.332Z,16.21
2023-05-02T02:12:27.055Z,14.90
2023-05-02T02:14:53.582Z,15.52
2023-05-02T02:17:20.109Z,15.27
2023-05-02T02:19:46.616Z,15.23
2023-05-02T02:22:13.103Z,15.86
2023-05-02T02:24:39.588Z,15.24
2023-05-02T02:27:06.121Z,15.07
2023-05-02T02:29:32.592Z,15.44
2023-05-02T02:31:59.057Z,14.58
2023-05-02T02:34:25.591Z,14.14
2023-05-02T02:36:52.151Z,13.77
2023-05-02T02:39:18.714Z,15.13
2023-05-02T02:41:48.445Z,16.12
2023-05-02T02:44:15.028Z,14.79
2023-05-02T02:46:41.644Z,14.42
2023-05-02T02:49:08.162Z,15.74
2023-05-02T02:51:34.622Z,15.60
2023-05-02T02:54:01.178Z,14.09
2023-05-02T02:56:27.660Z,16.16
2023-05-02T02:58:54.115Z,15.25
2023-05-02T03:01:20.675Z,14.30
2023-05-02T03:03:47.221Z,14.46
2023-05-02T03:06:13.812Z,15.00
2023-05-02T03:08:40.298Z,15.45
2023-05-02T03:11:06.790Z,14.89
2023-05-02T03:13:33.342Z,16.05
2023-05-02T03:15:59.835Z,14.23
2023-05-02T03:18:26.327Z,15.84
2023-05-02T03:20:52.794Z,13.59
2023-05-02T03:23:19.317Z,13.59
2023-05-02T03:25:45.801Z,13.79
2023-05-02T03:28:12.449Z,14.71
2023-05-02T03:30:39.006Z,14.76
2023-05-02T03:33:05.608Z,14.67
2023-05-02T03:35:32.201Z,14.41
2023-05-02T03:37:58.716Z,14.29
2023-05-02T03:40:25.236Z,15.11
2023-05-02T03:42:51.818Z,13.23
2023-05-02T03:45:18.395Z,14.43
2023-05-02T03:47:44.857Z,14.42
2023-05-02T03:50:11.351Z,13.43
2023-05-02T03:52:37.842Z,14.95
2023-05-02T03:55:04.388Z,14.93
2023-05-02T03:57:30.921Z,14.87
2023-05-02T03:59:57.707Z,14.72
2023-05-02T04:02:24.443Z,14.25
2023-05-02T04:04:51.018Z,13.13
2023-05-02T04:07:17.577Z,14.86
2023-05-02T04:09:44.112Z,14.37
2023-05-02T04:12:10.621Z,13.51
2023-05-02T04:14:37.104Z,13.58
2023-05-02T04:17:03.741Z,12.87
2023-05-02T04:19:30.355Z,13.29
2023-05-02T04:21:56.952Z,13.38
2023-05-02T04:24:23.437Z,14.48
2023-05-02T04:26:49.970Z,14.83
2023-05-02T04:29:16.440Z,15.22
2023-05-02T04:31:42.939Z,14.78
2023-05-02T04:34:09.495Z,14.94
2023-05-02T04:36:36.024Z,14.31
2023-05-02T04:39:02.463Z,13.21
2023-05-02T04:41:28.932Z,14.81
2023-05-02T04:43:55.410Z,13.85
2023-05-02T04:46:21.977Z,15.75
2023-05-02T04:48:48.522Z,15.15
2023-05-02T04:51:16.894Z,14.74
2023-05-02T04:53:43.734Z,14.27
2023-05-02T04:56:10.284Z,15.17
2023-05-02T04:58:36.806Z,13.88
2023-05-02T05:01:03.314Z,15.44
2023-05-02T05:03:30.064Z,15.11
2023-05-02T05:05:56.595Z,15.15
2023-05-02T05:08:24.981Z,13.39
2023-05-02T05:10:51.474Z,15.75
2023-05-02T05:13:17.969Z,15.40
2023-05-02T05:15:44.724Z,15.35
2023-05-02T05:18:11.361Z,15.01
2023-05-02T05:20:37.976Z,14.16
2023-05-02T05:23:04.412Z,14.12
2023-05-02T05:25:30.898Z,14.42
2023-05-02T05:27:57.343Z,13.29
2023-05-02T05:30:23.857Z,16.22
2023-05-02T05:32:50.336Z,14.27
2023-05-02T05:35:16.799Z,15.37
2023-05-02T05:37:44.327Z,16.44
2023-05-02T05:40:10.767Z,17.06
2023-05-02T05:42:37.286Z,18.65
2023-05-02T05:45:03.820Z,18.66
2023-05-02T05:47:30.478Z,19.46
2023-05-02T05:49:57.240Z,19.57
2023-05-02T05:52:23.763Z,19.52
2023-05-02T05:54:50.274Z,20.24
2023-05-02T05:57:16.710Z,19.34
2023-05-02T05:59:43.208Z,20.28
2023-05-02T06:02:09.676Z,19.29
2023-05-02T06:04:36.127Z,19.66
2023-05-02T06:07:02.573Z,19.62
2023-05-02T06:09:29.051Z,21.65
2023-05-02T06:11:55.558Z,18.62
2023-05-02T06:14:22.036Z,20.42
2023-05-02T06:16:48.614Z,19.16
2023-05-02T06:19:15.157Z,18.96
2023-05-02T06:21:41.606Z,21.16
2023-05-02T06:24:08.014Z,20.42
2023-05-02T06:26:34.430Z,22.01
2023-05-02T06:29:00.900Z,22.01
2023-05-02T06:31:27.374Z,22.87
2023-05-02T06:33:53.882Z,22.74
2023-05-02T06:36:20.396Z,22.61
2023-05-02T06:38:46.919Z,23.61
2023-05-02T06:41:13.428Z,23.05
2023-05-02T06:43:40.150Z,22.18
2023-05-02T06:46:06.619Z,22.89
2023-05-02T06:48:33.068Z,22.58
2023-05-02T06:50:59.531Z,21.13
2023-05-02T06:53:26.002Z,21.86
2023-05-02T06:55:52.487Z,21.85
2023-05-02T06:58:18.979Z,22.08
2023-05-02T07:00:45.429Z,20.83
2023-05-02T07:03:11.950Z,21.30
2023-05-02T07:05:38.414Z,20.92
2023-05-02T07:08:04.848Z,21.07
2023-05-02T07:10:31.351Z,23.30
2023-05-02T07:12:57.793Z,22.65
2023-05-02T07:15:24.211Z,21.78
2023-05-02T07:17:50.793Z,21.67
2023-05-02T07:20:17.333Z,23.50
2023-05-02T07:22:43.807Z,21.36
2023-05-02T07:25:10.305Z,22.17
2023-05-02T07:27:36.753Z,21.73
2023-05-02T07:30:03.448Z,21.80
2023-05-02T07:32:30.362Z,20.35
2023-05-02T07:34:57.082Z,22.14
2023-05-02T07:37:23.573Z,22.67
2023-05-02T07:39:50.090Z,20.02
2023-05-02T07:42:16.611Z,20.96
2023-05-02T07:44:43.075Z,22.09
2023-05-02T07:47:09.521Z,21.51
2023-05-02T07:49:35.972Z,21.38
2023-05-02T07:52:03.640Z,21.28
2023-05-02T07:54:30.117Z,22.36
2023-05-02T07:56:56.542Z,20.88
2023-05-02T07:59:22.993Z,21.33
2023-05-02T08:01:49.426Z,21.58
2023-05-02T08:04:16.101Z,21.64
2023-05-02T08:06:42.733Z,21.02
2023-05-02T08:09:09.295Z,21.84
2023-05-02T08:11:35.813Z,22.19
2023-05-02T08:14:02.322Z,22.86
2023-05-02T08:16:28.817Z,22.80
2023-05-02T08:18:55.261Z,23.90
2023-05-02T08:21:21.776Z,23.02
2023-05-02T08:23:48.323Z,23.05
2023-05-02T08:26:14.785Z,23.34
2023-05-02T08:28:41.271Z,25.40
2023-05-02T08:31:07.818Z,24.33
2023-05-02T08:33:34.285Z,23.65
2023-05-02T08:36:00.784Z,25.30
2023-05-02T08:38:27.240Z,22.79
2023-05-02T08:40:53.689Z,25.29
2023-05-02T08:43:20.204Z,22.98
2023-05-02T08:45:46.717Z,23.68
2023-05-02T08:48:13.196Z,21.00
2023-05-02T08:50:39.796Z,23.32
2023-05-02T08:53:06.325Z,23.42
2023-05-02T08:55:32.769Z,23.53
2023-05-02T08:57:59.247Z,23.05
2023-05-02T09:00:25.769Z,23.78
2023-05-02T09:02:52.399Z,23.12
2023-05-02T09:05:18.896Z,22.94
2023-05-02T09:07:45.366Z,23.11
2023-05-02T09:10:11.937Z,23.65
2023-05-02T09:12:38.698Z,23.92
2023-05-02T09:15:06.253Z,24.49
2023-05-02T09:17:32.760Z,24.76
2023-05-02T09:19:59.293Z,27.14
2023-05-02T09:22:25.752Z,26.29
2023-05-02T09:24:52.315Z,24.91
2023-05-02T09:27:18.770Z,25.59
2023-05-02T09:29:45.178Z,25.47
2023-05-02T09:32:11.658Z,25.36
2023-05-02T09:34:38.146Z,25.03
2023-05-02T09:37:04.635Z,25.70
2023-05-02T09:39:31.041Z,24.92
2023-05-02T09:41:57.510Z,25.10
2023-05-02T09:44:23.961Z,25.22
2023-05-02T09:46:50.399Z,26.93
2023-05-02T09:49:16.828Z,26.48
2023-05-02T09:51:43.271Z,26.01
2023-05-02T09:54:09.725Z,25.03
2023-05-02T09:56:36.173Z,25.21
2023-05-02T09:59:02.608Z,25.27
2023-05-02T10:01:29.141Z,23.35
2023-05-02T10:03:55.733Z,26.05
2023-05-02T10:06:22.340Z,24.75
2023-05-02T10:08:48.869Z,25.76
2023-05-02T10:11:15.408Z,28.04
2023-05-02T10:13:41.864Z,29.81
2023-05-02T10:16:08.371Z,55.26
2023-05-02T10:18:34.965Z,50.05
2023-05-02T10:21:01.493Z,47.84
2023-05-02T10:23:28.072Z,64.11
2023-05-02T10:25:54.563Z,69.88
2023-05-02T10:28:21.121Z,70.82
2023-05-02T10:30:47.701Z,70.73
2023-05-02T10:33:14.444Z,67.27
2023-05-02T10:35:41.312Z,66.50
2023-05-02T10:38:07.831Z,67.23
2023-05-02T10:40:34.390Z,67.97
2023-05-02T10:43:00.988Z,69.09
2023-05-02T10:45:27.568Z,64.80
2023-05-02T10:47:54.164Z,60.79
2023-05-02T10:50:20.694Z,61.09
2023-05-02T10:52:47.202Z,60.89
2023-05-02T10:55:13.722Z,56.50
2023-05-02T10:57:40.274Z,56.92
2023-05-02T11:00:06.825Z,48.54
2023-05-02T11:02:33.493Z,47.27
2023-05-02T11:05:00.515Z,46.07
2023-05-02T11:07:27.250Z,44.58
2023-05-02T11:09:53.740Z,41.59
2023-05-02T11:12:20.223Z,42.26
2023-05-02T11:14:46.769Z,42.75
2023-05-02T11:17:13.270Z,40.26
2023-05-02T11:19:39.776Z,40.41
2023-05-02T11:22:06.267Z,40.65
2023-05-02T11:24:32.758Z,40.57
2023-05-02T11:26:59.355Z,41.72
2023-05-02T11:29:25.848Z,41.28
2023-05-02T11:31:52.473Z,41.48
2023-05-02T11:34:19.069Z,44.02
2023-05-02T11:36:45.613Z,39.51
2023-05-02T11:39:12.060Z,39.19
2023-05-02T11:41:38.572Z,40.06
2023-05-02T11:44:05.148Z,38.87
2023-05-02T11:46:31.752Z,39.17
2023-05-02T11:48:58.304Z,38.47
2023-05-02T11:51:24.903Z,37.28
2023-05-02T11:53:51.445Z,39.67
2023-05-02T11:56:18.040Z,37.26
2023-05-02T11:58:44.557Z,37.68
2023-05-02T12:01:11.134Z,37.36
2023-05-02T12:03:37.704Z,37.71
2023-05-02T12:06:04.559Z,37.04
2023-05-02T12:08:31.220Z,36.01
2023-05-02T12:10:57.819Z,35.35
2023-05-02T12:13:24.347Z,36.00
2023-05-02T12:15:50.826Z,36.46
2023-05-02T12:18:17.857Z,35.82
2023-05-02T12:20:44.858Z,35.69
2023-05-02T12:23:11.346Z,35.77
2023-05-02T12:25:37.825Z,36.18
2023-05-02T12:28:04.384Z,33.17
2023-05-02T12:30:30.930Z,33.50
2023-05-02T12:32:57.514Z,35.84
2023-05-02T12:35:24.122Z,34.02
2023-05-02T12:37:50.608Z,34.23
2023-05-02T12:40:17.110Z,34.99
2023-05-02T12:42:43.583Z,35.34
2023-05-02T12:45:10.067Z,34.89
2023-05-02T12:47:36.663Z,32.47
2023-05-02T12:50:03.418Z,34.82
2023-05-02T12:52:30.142Z,33.37
2023-05-02T12:54:56.625Z,34.69
2023-05-02T12:57:23.180Z,32.86
2023-05-02T12:59:49.743Z,33.88
2023-05-02T13:02:16.298Z,34.98
2023-05-02T13:04:42.735Z,31.66
2023-05-02T13:07:09.214Z,32.76
2023-05-02T13:09:35.740Z,32.31
2023-05-02T13:12:02.274Z,32.76
2023-05-02T13:14:28.924Z,30.97
2023-05-02T13:16:55.780Z,32.39
2023-05-02T13:19:22.375Z,31.40
2023-05-02T13:21:48.892Z,32.10
2023-05-02T13:24:15.418Z,31.11
2023-05-02T13:26:41.912Z,30.98
2023-05-02T13:29:08.445Z,30.71
2023-05-02T13:31:34.917Z,30.93
2023-05-02T13:34:01.481Z,33.57
2023-05-02T13:36:27.964Z,30.71
2023-05-02T13:38:54.429Z,30.99
2023-05-02T13:41:20.980Z,29.07
2023-05-02T13:43:47.573Z,30.97
2023-05-02T13:46:14.701Z,29.93
2023-05-02T13:48:41.284Z,31.68
2023-05-02T13:51:07.756Z,29.65
2023-05-02T13:53:34.485Z,28.80
2023-05-02T13:56:01.097Z,30.90
2023-05-02T13:58:27.550Z,29.37
2023-05-02T14:00:54.188Z,28.96
2023-05-02T14:03:20.810Z,29.13
2023-05-02T14:05:47.376Z,29.47
2023-05-02T14:08:13.966Z,28.33
2023-05-02T14:10:40.543Z,28.94
2023-05-02T14:13:07.090Z,28.81
2023-05-02T14:15:33.688Z,29.94
2023-05-02T14:18:02.875Z,28.37
2023-05-02T14:20:29.377Z,29.45
2023-05-02T14:22:58.570Z,29.21
2023-05-02T14:25:25.002Z,29.17
2023-05-02T14:27:51.455Z,28.75
2023-05-02T14:30:17.953Z,28.54
2023-05-02T14:32:44.423Z,28.54
2023-05-02T14:35:10.903Z,29.84
2023-05-02T14:37:37.413Z,31.79
2023-05-02T14:40:04.070Z,28.50
2023-05-02T14:42:30.720Z,28.12
2023-05-02T14:44:59.581Z,28.02
2023-05-02T14:47:26.452Z,29.59
2023-05-02T14:49:52.916Z,27.54
2023-05-02T14:52:19.347Z,29.00
2023-05-02T14:54:45.829Z,27.71
2023-05-02T14:57:12.442Z,27.58
2023-05-02T14:59:38.946Z,27.01
2023-05-02T15:02:05.605Z,26.53
2023-05-02T15:04:32.472Z,27.49
2023-05-02T15:06:59.196Z,27.97
2023-05-02T15:09:25.792Z,28.02
2023-05-02T15:11:52.262Z,25.63
2023-05-02T15:14:18.694Z,25.14
2023-05-02T15:16:45.334Z,25.71
2023-05-02T15:19:11.875Z,25.00
2023-05-02T15:21:38.387Z,24.71
2023-05-02T15:24:04.874Z,25.25
2023-05-02T15:26:31.374Z,24.60
2023-05-02T15:28:57.910Z,26.00
2023-05-02T15:31:24.586Z,24.35
2023-05-02T15:33:51.084Z,23.63
2023-05-02T15:36:17.516Z,23.51
2023-05-02T15:38:44.099Z,23.34
2023-05-02T15:41:10.567Z,25.78
2023-05-02T15:43:37.122Z,24.35
2023-05-02T15:46:03.607Z,23.69
2023-05-02T15:48:30.346Z,23.59
2023-05-02T15:50:56.814Z,24.45
2023-05-02T15:53:23.334Z,25.35
2023-05-02T15:55:49.803Z,24.74
2023-05-02T15:58:16.296Z,24.19
2023-05-02T16:00:42.855Z,25.73
2023-05-02T16:03:09.398Z,24.92
2023-05-02T16:05:35.935Z,23.61
2023-05-02T16:08:02.451Z,25.34
2023-05-02T16:10:28.957Z,24.38
2023-05-02T16:12:55.473Z,23.74
2023-05-02T16:15:22.021Z,25.33
2023-05-02T16:17:48.538Z,24.50
2023-05-02T16:20:15.126Z,27.58
2023-05-02T16:22:41.677Z,25.85
2023-05-02T16:25:08.215Z,27.49
2023-05-02T16:27:34.679Z,27.56
2023-05-02T16:30:01.478Z,28.09
2023-05-02T16:32:28.215Z,25.70
2023-05-02T16:34:54.812Z,26.84
2023-05-02T16:37:21.305Z,27.66
2023-05-02T16:39:47.800Z,27.11
2023-05-02T16:42:14.343Z,25.66
2023-05-02T16:44:40.857Z,26.86
2023-05-02T16:47:07.473Z,28.18
2023-05-02T16:49:34.040Z,26.65
2023-05-02T16:52:00.579Z,29.21
2023-05-02T16:54:27.096Z,27.48
2023-05-02T16:56:53.735Z,26.75
2023-05-02T16:59:20.197Z,26.28
2023-05-02T17:01:46.817Z,27.00
2023-05-02T17:04:13.312Z,25.55
2023-05-02T17:06:39.917Z,26.26
2023-05-02T17:09:06.456Z,25.95
2023-05-02T17:11:32.966Z,26.36
2023-05-02T17:13:59.404Z,25.30
2023-05-02T17:16:25.949Z,26.57
2023-05-02T17:18:52.668Z,26.98
2023-05-02T17:21:19.214Z,25.65
2023-05-02T17:23:45.706Z,27.11
2023-05-02T17:26:12.312Z,26.11
2023-05-02T17:28:38.934Z,26.02
2023-05-02T17:31:05.443Z,26.01
2023-05-02T17:33:32.050Z,26.42
2023-05-02T17:35:58.493Z,25.19
2023-05-02T17:38:24.920Z,26.29
2023-05-02T17:40:51.383Z,25.81
2023-05-02T17:43:17.802Z,26.63
2023-05-02T17:45:44.376Z,24.64
2023-05-02T17:48:11.159Z,24.46
2023-05-02T17:50:37.797Z,22.96
2023-05-02T17:53:04.294Z,22.97
2023-05-02T17:55:30.756Z,23.37
2023-05-02T17:57:57.167Z,22.86
2023-05-02T18:00:23.639Z,22.95
2023-05-02T18:02:50.222Z,22.36
2023-05-02T18:05:16.796Z,21.55
2023-05-02T18:07:43.331Z,21.34
2023-05-02T18:10:09.865Z,22.37
2023-05-02T18:12:36.349Z,24.02
2023-05-02T18:15:03.107Z,25.14
2023-05-02T18:17:29.877Z,25.73
2023-05-02T18:19:56.367Z,23.74
2023-05-02T18:22:22.887Z,23.40
2023-05-02T18:24:49.307Z,23.92
2023-05-02T18:27:15.760Z,24.59
2023-05-02T18:29:42.196Z,26.66
2023-05-02T18:32:08.743Z,25.41
2023-05-02T18:34:37.761Z,22.84
2023-05-02T18:37:05.185Z,24.75
2023-05-02T18:39:31.760Z,25.12
2023-05-02T18:41:58.219Z,24.50
2023-05-02T18:44:24.686Z,25.26
2023-05-02T18:46:51.243Z,25.38
2023-05-02T18:49:17.816Z,24.99
2023-05-02T18:51:44.320Z,25.06
2023-05-02T18:54:10.832Z,25.06
2023-05-02T18:56:37.330Z,24.08
2023-05-02T18:59:03.783Z,23.29
2023-05-02T19:01:30.337Z,22.22
2023-05-02T19:03:56.890Z,24.64
2023-05-02T19:06:23.508Z,25.13
2023-05-02T19:08:50.110Z,24.68
2023-05-02T19:11:16.616Z,22.78
2023-05-02T19:13:43.144Z,21.60
2023-05-02T19:16:09.833Z,24.72
2023-05-02T19:18:36.370Z,23.26
2023-05-02T19:21:08.492Z,22.56
2023-05-02T19:23:35.198Z,23.78
2023-05-02T19:26:01.676Z,23.54
2023-05-02T19:28:28.304Z,23.16
2023-05-02T19:30:54.786Z,23.23
2023-05-02T19:33:21.300Z,23.29
2023-05-02T19:35:47.845Z,23.17
2023-05-02T19:38:14.344Z,23.24
2023-05-02T19:40:40.854Z,23.60
2023-05-02T19:43:07.588Z,24.10
2023-05-02T19:45:34.130Z,24.02
2023-05-02T19:48:00.705Z,21.79
2023-05-02T19:50:27.209Z,24.53
2023-05-02T19:52:53.707Z,22.54
2023-05-02T19:55:20.219Z,22.64
2023-05-02T19:57:46.651Z,25.54
2023-05-02T20:00:13.081Z,23.56
2023-05-02T20:02:39.660Z,22.66
2023-05-02T20:05:06.148Z,22.73
2023-05-02T20:07:32.649Z,22.19
2023-05-02T20:10:00.086Z,22.49
2023-05-02T20:12:26.958Z,22.45
2023-05-02T20:14:53.430Z,22.36
2023-05-02T20:17:19.966Z,22.61
2023-05-02T20:19:46.423Z,23.55
2023-05-02T20:22:12.854Z,23.23
2023-05-02T20:24:39.274Z,22.14
2023-05-02T20:27:05.701Z,23.61
2023-05-02T20:29:32.145Z,24.68
2023-05-02T20:31:58.659Z,24.12
2023-05-02T20:34:25.105Z,22.69
2023-05-02T20:36:51.599Z,21.37
2023-05-02T20:39:18.123Z,23.06
2023-05-02T20:41:44.647Z,22.30
2023-05-02T20:44:11.116Z,23.65
2023-05-02T20:46:37.767Z,22.81
2023-05-02T20:49:04.501Z,23.47
2023-05-02T20:51:31.065Z,23.49
2023-05-02T20:53:57.625Z,23.58
2023-05-02T20:56:24.120Z,23.59
2023-05-02T20:58:50.626Z,23.68
2023-05-02T21:01:17.169Z,20.13
2023-05-02T21:03:43.882Z,22.08
2023-05-02T21:06:10.571Z,23.31
2023-05-02T21:08:37.201Z,23.17
2023-05-02T21:11:03.759Z,22.13
2023-05-02T21:13:30.327Z,23.17
2023-05-02T21:15:56.960Z,23.49
2023-05-02T21:18:23.498Z,21.28
2023-05-02T21:20:50.003Z,20.98
2023-05-02T21:23:16.555Z,22.40
2023-05-02T21:25:43.157Z,21.77
2023-05-02T21:28:11.035Z,23.87
2023-05-02T21:30:37.568Z,21.67
2023-05-02T21:33:04.150Z,21.15
2023-05-02T21:35:30.829Z,21.73
2023-05-02T21:37:57.284Z,22.12
2023-05-02T21:40:23.675Z,21.42
2023-05-02T21:42:50.253Z,23.21
2023-05-02T21:45:16.790Z,21.39
2023-05-02T21:47:43.372Z,22.25
2023-05-02T21:50:10.049Z,20.81
2023-05-02T21:52:36.579Z,20.86
2023-05-02T21:55:03.132Z,21.53
2023-05-02T21:57:29.666Z,21.59
2023-05-02T21:59:56.286Z,21.47
2023-05-02T22:02:22.832Z,20.48
2023-05-02T22:04:49.423Z,21.28
2023-05-02T22:07:15.968Z,21.81
2023-05-02T22:09:42.604Z,21.95
2023-05-02T22:12:09.152Z,20.88
2023-05-02T22:14:44.281Z,20.73
2023-05-02T22:17:12.047Z,21.52
2023-05-02T22:19:38.581Z,20.91
2023-05-02T22:22:05.130Z,21.43
2023-05-02T22:24:31.641Z,21.97
2023-05-02T22:26:58.141Z,21.23
2023-05-02T22:29:24.619Z,20.32
2023-05-02T22:31:51.160Z,21.36
2023-05-02T22:34:17.647Z,21.52
2023-05-02T22:36:44.395Z,21.03
2023-05-02T22:39:10.951Z,21.20
2023-05-02T22:41:37.546Z,23.11
2023-05-02T22:44:03.978Z,20.39
2023-05-02T22:46:30.432Z,21.43
2023-05-02T22:48:56.869Z,20.89
2023-05-02T22:51:23.350Z,22.36
2023-05-02T22:53:49.833Z,22.08
2023-05-02T22:56:16.323Z,22.05
2023-05-02T22:58:45.551Z,20.59
2023-05-02T23:01:12.100Z,20.84
2023-05-02T23:03:38.834Z,20.94
2023-05-02T23:06:05.437Z,19.97
2023-05-02T23:08:32.028Z,20.69
2023-05-02T23:10:58.563Z,20.62
2023-05-02T23:13:25.141Z,20.86
2023-05-02T23:15:51.734Z,19.76
2023-05-02T23:18:18.249Z,21.24
2023-05-02T23:20:44.698Z,18.80
2023-05-02T23:23:11.169Z,21.31
2023-05-02T23:25:37.737Z,20.37
2023-05-02T23:28:04.304Z,21.04
2023-05-02T23:30:30.829Z,18.97
2023-05-02T23:32:57.344Z,19.21
2023-05-02T23:35:23.931Z,22.67
2023-05-02T23:37:50.434Z,22.36
2023-05-02T23:40:16.927Z,20.91
2023-05-02T23:42:43.484Z,21.01
2023-05-02T23:45:10.120Z,19.40
2023-05-02T23:47:36.724Z,21.10
2023-05-02T23:50:03.467Z,21.65
2023-05-02T23:52:30.297Z,20.59
2023-05-02T23:54:56.848Z,21.08
2023-05-02T23:57:23.541Z,19.71
2023-05-02T23:59:50.098Z,20.58
